Arbona, Serge
United StatesManBorn 19651996 – 2026Runner id 24283
Events
135
117 race dates
Best pace
12.987
km/h · 2009
Best finish
1st
of 198 · 2011
Distance raced
15,331
km · splits not double-counted
Pace over time
km/h · higher is faster
Pace over time: 118 races and 17 splits from 1996 to 2026, ranging from 4.96 to 13.83 kilometres per hour, where higher is faster. A second, age-graded series is drawn above it; the gap between the two is the age credit.
- Actual pace
- Age-graded pace
- Split of a race already plotted
Results
| Date | Event | Distance | Result | Pace km/h | Placing |
|---|---|---|---|---|---|
| 1996-08-03 | 50km | 6:08:35 h | 8.139 | 9/37 | |
| 1997-04-12 | 50mi | 9:40:42 h | 8.314 | 69/199 | |
| 1999-08-21 | 50km | 5:48:56 h | 8.598 | 14/72 | |
| 2000-05-20 | 50km | 4:13:19 h | 11.843 | 6/78 | |
| 2000-06-11 | 50km | 4:47:36 h | 10.431 | 4/41 | |
| 2000-08-05 | 50km | 5:35:02 h | 8.954 | 3/88 | |
| 2001-09-15 | 24h | 196.342 km | 8.181 | 9/145 | |
| 2001-11-17 | 50mi | 6:38:07 h | 12.127 | 10/818 | |
| 2002-04-06 | 100mi | 14:42:29 h | 10.942 | 1/76 | |
| 2002-05-25 | 100mi | 16:23:30 h | 9.818 | 1/24 | |
| 2002-11-23 | 50mi | 6:33:26 h | 12.272 | 5/862 | |
| 2003-02-01 | 100mi | 14:37:50 h | 11.000 | 1/76 | |
| 2003-08-02 | 50km | 4:44:34 h | 10.542 | 2/92 | |
| 2003-09-20 | Great Eastern Endurance Run 50 kmUnited States | 50km | 4:12:44 h | 11.870 | 1/159 |
| 2004-04-03 | 50mi | 7:47:12 h | 10.334 | 3/92 | |
| 2004-08-07 | 50km | 4:38:59 h | 10.753 | 1/112 | |
| 2004-09-11 | 24h | 160.934 km | 6.706 | 5/72 | |
| 2004-09-11 | Olander Park 24 Hour Run - 100mi SplitUnited StatesSplit of the race above; not counted again in the distance total*Baltimore, MD | 100mi | 15:57:39 h | 10.083 | 5/32 |
| 2004-11-20 | 50mi | 6:36:38 h | 12.173 | 6/876 | |
| 2005-04-02 | 100mi | 15:26:28 h | 10.422 | 1/87 | |
| 2005-05-28 | 100mi | 15:43:00 h | 10.240 | 1/14 | |
| 2005-08-06 | 50km | 4:43:56 h | 10.566 | 1/112 | |
| 2005-12-10 | 100km | 11:41:01 h | 8.559 | 1/53 | |
| 2006-05-27 | Old Dominion Memorial Day Race 100 MileUnited States | 100mi | 18:48:21 h | 8.558 | 1/15 |
| 2006-08-05 | 50km | 5:05:21 h | 9.825 | 1/114 | |
| 2006-09-23 | Gunpowder Keg UltraUnited States | 50km | 4:23:18 h | 11.394 | 2/27 |
| 2007-03-03 | 50km | 4:41:49 h | 10.645 | 3/69 | |
| 2007-03-31 | 100mi | 15:21:09 h | 10.483 | 1/108 | |
| 2007-04-29 | 6d | 724.205 km | 5.029 | 2/38 | |
| 2007-04-29 | Sri Chinmoy 6 Day Race - 24h SplitUnited StatesSplit of the race above; not counted again in the distance total*Baltimore, MD | 24h | 212.433 km | 8.851 | 1/38 |
| 2007-04-29 | Sri Chinmoy 6 Day Race - 48h SplitUnited StatesSplit of the race above; not counted again in the distance total*Baltimore, MD | 48h | 342.790 km | 7.141 | 1/38 |
| 2007-08-04 | 50km | 5:26:42 h | 9.183 | 2/101 | |
| 2007-09-22 | Gunpowder Keg UltraUnited States | 50km | 3:55:00 h | 12.766 | 1/29 |
| 2007-11-03 | 50mi | 7:53:36 h | 10.194 | 5/223 | |
| 2007-11-17 | 50mi | 7:03:15 h | 11.407 | 18/1078 | |
| 2007-12-08 | 100km | 12:21:48 h | 8.088 | 2/81 | |
| 2008-04-05 | 100mi | 15:53:09 h | 10.131 | 1/104 | |
| 2008-08-02 | 50km | 5:20:39 h | 9.356 | 5/115 | |
| 2008-09-20 | Gunpowder Keg UltraUnited States | 50km | 3:59:00 h | 12.552 | 1/30 |
| 2008-11-22 | 50mi | 9:17:41 h | 8.657 | 210/927 | |
| 2009-04-04 | 100mi | 18:24:17 h | 8.744 | 10/132 | |
| 2009-07-18 | 24h | 235.418 km | 9.809 | 1/152 | |
| 2009-08-01 | 50km | 5:27:53 h | 9.150 | 4/139 | |
| 2009-09-19 | Gunpowder Keg UltraUnited States | 50km | 3:51:00 h | 12.987 | 1/22 |
| 2009-10-03 | 24h | 163.806 km | 6.825 | 33/105 | |
| 2010-03-27 | 100mi | 14:09:16 h | 11.370 | 2/133 | |
| 2010-05-13 | 24h | 242.176 km | 10.091 | 21/229 | |
| 2010-05-13 | IAU 24h WC Brive (Les 24 heures de Brive) - 12h SplitFranceIAU BronzeSplit of the race above; not counted again in the distance total | 12h | 139.370 km | 11.614 | 5/229 |
| 2010-05-13 | IAU 24h WC Brive (Les 24 heures de Brive) - 6h SplitFranceIAU BronzeSplit of the race above; not counted again in the distance total | 6h | 74.170 km | 12.362 | 3/224 |
| 2010-07-17 | 24h | 236.171 km | 9.840 | 1/158 | |
| 2010-07-31 | 50km | 5:43:28 h | 8.734 | 7/151 | |
| 2010-09-18 | 24h | 251.845 km | 10.494 | 1/145 | |
| 2010-11-20 | 50mi | 6:52:09 h | 11.714 | 21/1014 | |
| 2011-04-02 | 100mi | 28:03:20 h | 5.736 | 120/144 | |
| 2011-07-16 | 24h | 233.760 km | 9.740 | 1/198 | |
| 2011-07-30 | 50km | 6:06:06 h | 8.194 | 6/119 | |
| 2011-09-17 | 24h | 208.844 km | 8.702 | 8/180 | |
| 2011-09-17 | 24h | 208.844 km | 8.702 | 7/91 | |
| 2011-11-19 | 50mi | 8:04:07 h | 9.973 | 96/864 | |
| 2012-02-11 | 50km | 4:20:33 h | 11.514 | 3/79 | |
| 2012-03-31 | 50mi | 6:24:04 h | 12.571 | 2/92 | |
| 2012-05-06 | 24h | 246.921 km | 10.288 | 2/85 | |
| 2012-07-14 | 24h | 249.026 km | 10.376 | 1/195 | |
| 2012-09-08 | 24h | 182.294 km | 7.596 | 146/244 | |
| 2012-09-08 | IAU 24h WC Katowice - 100mi splitPolandIAU BronzeSplit of the race above; not counted again in the distance total | 100mi | 14:27:30 h | 11.131 | 5/182 |
| 2012-11-17 | 50mi | 7:12:43 h | 11.157 | 36/967 | |
| 2013-02-09 | 50km | 4:14:00 h | 11.811 | 6/95 | |
| 2013-04-06 | 100mi | 17:24:25 h | 9.245 | 11/162 | |
| 2013-05-18 | 24h | 243.010 km | 10.125 | 1/39 | |
| 2013-09-21 | 24h | 202.777 km | 8.449 | 1/63 | |
| 2014-02-08 | 50km | 4:15:44 h | 11.731 | 5/101 | |
| 2014-04-05 | 100mi | 18:46:31 h | 8.572 | 20/151 | |
| 2014-05-16 | 48h | 299.337 km | 6.236 | 2/48 | |
| 2014-05-16 | 3 Days at the Fair 48 Hour Race - 24h SplitUnited StatesIAU BronzeSplit of the race above; not counted again in the distance total*Parkville, MD | 24h | 218.870 km | 9.120 | 2/45 |
| 2014-07-19 | 24h | 231.455 km | 9.644 | 1/140 | |
| 2014-09-06 | Gunpowder Keg UltraUnited States | 50km | 5:35:37 h | 8.939 | 1/14 |
| 2014-09-20 | 24h | 166.783 km | 6.949 | 21/151 | |
| 2014-09-20 | North Coast 24 Hour Endurance Run - 100mi SplitUnited StatesIAU BronzeSplit of the race above; not counted again in the distance total | 100mi | 22:48:57 h | 7.054 | 20/26 |
| 2014-09-20 | North Coast 24 Hour Endurance Run - 12h SplitUnited StatesIAU BronzeSplit of the race above; not counted again in the distance total | 12h | 116.049 km | 9.671 | 4/137 |
| 2015-02-07 | Mid-Maryland Ultra 50kUnited States | 50km | 4:20:58 h | 11.496 | 7/102 |
| 2015-05-14 | 3 Days at the Fair 72 Hour RaceUnited States | 72h | 431.304 km | 5.990 | 2/68 |
| 2015-05-14 | 3 Days at the Fair 72 Hour Race - 48h SplitUnited StatesSplit of the race above; not counted again in the distance total | 48h | 246.229 km | 5.130 | 6/63 |
| 2015-05-14 | 3 Days at the Fair 72 Hour Race - 24h SplitUnited StatesSplit of the race above; not counted again in the distance total | 24h | 181.855 km | 7.577 | 2/63 |
| 2015-07-18 | Lone Ranger 24 hr Urban UltraUnited States | 24h | 213.930 km | 8.914 | 1/128 |
| 2015-09-19 | North Coast 24 Hour Endurance RunUnited States | 24h | 160.987 km | 6.708 | 35/162 |
| 2015-11-07 | 24h | 217.261 km | 9.053 | 1/72 | |
| 2016-02-13 | 50km | 4:45:00 h | 10.526 | 4/65 | |
| 2016-04-02 | 100mi | 18:26:12 h | 8.729 | 8/156 | |
| 2016-05-12 | 72h | 487.631 km | 6.773 | 1/73 | |
| 2016-05-12 | 3 Days at the Fair 72 Hour Race - 48h SplitUnited StatesIAU BronzeSplit of the race above; not counted again in the distance total | 48h | 329.915 km | 6.873 | 1/71 |
| 2016-05-12 | 3 Days at the Fair 72 Hour Race - 24h SplitUnited StatesIAU BronzeSplit of the race above; not counted again in the distance total | 24h | 177.027 km | 7.376 | 1/70 |
| 2016-07-16 | 50km | 6:01:03 h | 8.309 | 6/120 | |
| 2016-07-23 | 24h | 178.637 km | 7.443 | 1/80 | |
| 2016-09-17 | North Coast 24 Hour Endurance RunUnited States | 24h | 220.335 km | 9.181 | 4/172 |
| 2016-11-11 | 24h | 188.293 km | 7.846 | 4/54 | |
| 2016-11-11 | NJ One Day 24 Hour Race - 100mi SplitUnited StatesIAU BronzeSplit of the race above; not counted again in the distance total*Parkville, MD | 100mi | 18:05:50 h | 8.893 | 4/12 |
| 2016-11-11 | NJ One Day 24 Hour Race - 50mi SplitUnited StatesIAU BronzeSplit of the race above; not counted again in the distance total*Parkville, MD | 50mi | 7:46:03 h | 10.359 | 4/47 |
| 2017-03-18 | 50km | 4:47:52 h | 10.421 | 8/335 | |
| 2017-04-29 | Gunpowder Keg UltraUnited States | 50km | 4:57:41 h | 10.078 | 1/22 |
| 2017-07-22 | Montour 24 Endurance Runs - 24hrs runUnited States | 24h | 118.930 km | 4.955 | 14/71 |
| 2017-09-16 | North Coast 24 Hour Endurance RunUnited States | 24h | 173.210 km | 7.217 | 11/129 |
| 2017-11-11 | 24h | 212.433 km | 8.851 | 1/59 | |
| 2017-11-11 | NJ One Day 24 Hour Race - 12h splitUnited StatesSplit of the race above; not counted again in the distance total | 12h | 111.041 km | 9.253 | 3/8 |
| 2017-11-11 | NJ One Day 24 Hour Race - 100mi splitUnited StatesSplit of the race above; not counted again in the distance total | 100mi | 18:01:09 h | 8.931 | 2/8 |
| 2018-02-10 | 50km | 4:14:25 h | 11.792 | 7/63 | |
| 2018-03-24 | 50km | 4:54:22 h | 10.191 | 14/339 | |
| 2018-04-08 | 100mi | 21:06:08 h | 7.626 | 20/114 | |
| 2018-05-11 | Montour 24 Endurance Runs - 24hrs runUnited States | 24h | 165.698 km | 6.904 | 2/50 |
| 2018-07-14 | 50km | 6:24:25 h | 7.804 | 13/125 | |
| 2018-11-10 | 24h | 177.027 km | 7.376 | 4/57 | |
| 2019-02-16 | 50km | 4:48:55 h | 10.384 | 8/82 | |
| 2019-03-23 | 50km | 5:17:18 h | 9.455 | 34/355 | |
| 2019-05-25 | 24h | 178.637 km | 7.443 | 1/16 | |
| 2019-06-05 | Run your Towne 24 Hour ChallengeUnited States | 24h | 197.949 km | 8.248 | 1/31 |
| 2019-07-20 | 50km | 6:42:02 h | 7.462 | 10/82 | |
| 2019-11-09 | 50mi | 9:29:01 h | 8.485 | 26/250 | |
| 2020-02-15 | 50km | 4:42:38 h | 10.614 | 10/76 | |
| 2021-03-07 | 50km | 4:54:50 h | 10.175 | 13/48 | |
| 2021-06-02 | 24h | 190.610 km | 7.942 | 1/35 | |
| 2021-06-19 | Mason-Dixon Trail Longest Day 100K ChallengeUnited States | 100km | 15:08:00 h | 6.608 | 7/11 |
| 2021-07-10 | 50km | 6:30:42 h | 7.679 | 26/141 | |
| 2021-07-31 | 6h | 65.210 km | 10.868 | 6/57 | |
| 2021-10-08 | 24h | 202.777 km | 8.449 | 1/31 | |
| 2022-02-12 | 50km | 5:11:26 h | 9.633 | 19/80 | |
| 2022-06-08 | 24h | 160.676 km | 6.695 | 2/34 | |
| 2022-07-09 | 50km | 6:36:13 h | 7.572 | 19/120 | |
| 2023-03-25 | 24h | 156.911 km | 6.538 | 1/13 | |
| 2023-06-07 | 24h | 125.561 km | 5.232 | 1/20 | |
| 2023-07-08 | 50km | 7:34:39 h | 6.598 | 28/101 | |
| 2024-03-23 | 24h | 165.762 km | 6.907 | 1/21 | |
| 2024-07-13 | 50km | 7:08:50 h | 6.996 | 25/116 | |
| 2024-08-03 | 24h | 129.552 km | 5.398 | 1/16 | |
| 2025-06-21 | 50km | 7:47:05 h | 6.423 | 33/93 | |
| 2026-03-28 | 24h | 167.371 km | 6.974 | 1/37 | |
| 2026-06-20 | 50km | 8:17:31 h | 6.030 | 38/89 |